Time;durP1;ratioP1;P1;durP2;ratioP2;P2;SDS_P1;SDS_P2;PMS_P1;PMS_P2;Temp;Humidity;BMP_temperature;BMP_pressure;BME280_temperature;BME280_humidity;BME280_pressure;Samples;Min_cycle;Max_cycle;Signal;HPM_P1;HPM_P2
2022/03/03 00:01:56;;;;;;;67.00;33.72;;;8.00;99.90;;;;;;5082374;28;20070;-75
2022/03/03 00:04:22;;;;;;;65.45;34.90;;;8.10;99.90;;;;;;5081177;28;20108;-75
2022/03/03 00:06:48;;;;;;;75.90;36.92;;;8.10;99.90;;;;;;5082465;28;20319;-75
2022/03/03 00:09:13;;;;;;;67.93;35.50;;;8.10;99.90;;;;;;5099448;28;20043;-76
2022/03/03 00:11:39;;;;;;;65.20;34.53;;;8.20;99.90;;;;;;5065259;28;20016;-75
2022/03/03 00:14:05;;;;;;;72.75;34.70;;;8.20;99.90;;;;;;5065689;28;20033;-75
2022/03/03 00:16:31;;;;;;;69.75;34.75;;;8.20;99.90;;;;;;5085478;28;20023;-74
2022/03/03 00:18:57;;;;;;;70.80;35.60;;;8.10;99.90;;;;;;5103287;28;20036;-75
2022/03/03 00:21:23;;;;;;;73.63;36.17;;;8.10;99.90;;;;;;5103090;28;20012;-74
2022/03/03 00:23:49;;;;;;;71.20;35.58;;;8.10;99.90;;;;;;5103115;28;20307;-75
2022/03/03 00:26:15;;;;;;;77.38;37.80;;;8.10;99.90;;;;;;5102856;28;20335;-76
2022/03/03 00:28:40;;;;;;;72.07;34.78;;;8.20;99.90;;;;;;5103061;28;20070;-76
2022/03/03 00:31:07;;;;;;;70.63;35.95;;;8.20;99.90;;;;;;5102861;28;20031;-74
2022/03/03 00:33:32;;;;;;;72.05;35.67;;;8.20;99.90;;;;;;5086064;28;20028;-74
2022/03/03 00:35:59;;;;;;;71.47;35.83;;;8.20;99.90;;;;;;5086194;28;20020;-75
2022/03/03 00:38:24;;;;;;;68.50;34.42;;;8.30;99.90;;;;;;5085824;28;20036;-75
2022/03/03 00:40:50;;;;;;;77.07;35.38;;;8.30;99.90;;;;;;5087009;28;20024;-75
2022/03/03 00:43:16;;;;;;;72.75;36.17;;;8.30;99.90;;;;;;5085559;28;20056;-74
2022/03/03 00:45:41;;;;;;;73.80;34.85;;;8.30;99.90;;;;;;5085567;28;20052;-75
2022/03/03 00:48:07;;;;;;;71.82;35.92;;;8.30;99.90;;;;;;5085926;28;20099;-76
2022/03/03 00:50:33;;;;;;;68.88;36.22;;;8.30;99.90;;;;;;5069248;28;20020;-75
2022/03/03 00:52:59;;;;;;;72.05;36.95;;;8.30;99.90;;;;;;5085625;28;20017;-76
2022/03/03 00:55:25;;;;;;;74.35;37.58;;;8.30;99.90;;;;;;5102647;28;20051;-74
2022/03/03 00:57:51;;;;;;;73.43;36.03;;;8.30;99.90;;;;;;5101911;28;20299;-75
2022/03/03 01:00:18;;;;;;;71.82;36.85;;;8.30;99.90;;;;;;5102191;28;20013;-75
2022/03/03 01:02:46;;;;;;;69.82;37.25;;;8.30;99.90;;;;;;5102254;28;20028;-75
2022/03/03 01:05:12;;;;;;;72.68;35.22;;;8.30;99.90;;;;;;5067129;28;20044;-75
2022/03/03 01:07:38;;;;;;;68.63;35.50;;;8.30;99.90;;;;;;5102396;28;20371;-75
2022/03/03 01:10:06;;;;;;;66.40;36.65;;;8.30;99.90;;;;;;5102369;28;20031;-74
2022/03/03 01:12:31;;;;;;;76.90;38.50;;;8.20;99.90;;;;;;5097126;28;20291;-74
2022/03/03 01:14:57;;;;;;;69.13;36.28;;;8.10;99.90;;;;;;5065085;28;20024;-74
2022/03/03 01:17:23;;;;;;;71.93;35.35;;;8.10;99.90;;;;;;5065292;28;20330;-76
2022/03/03 01:19:49;;;;;;;73.85;37.25;;;8.10;99.90;;;;;;5065251;28;20185;-74
2022/03/03 01:22:16;;;;;;;78.68;37.38;;;8.10;99.90;;;;;;5065893;28;20074;-74
2022/03/03 01:24:43;;;;;;;74.97;37.30;;;8.10;99.90;;;;;;5065034;28;20032;-75
2022/03/03 01:27:08;;;;;;;74.97;38.17;;;8.10;99.90;;;;;;5065078;28;20258;-75
2022/03/03 01:29:34;;;;;;;76.97;40.88;;;8.10;99.90;;;;;;5066157;28;20037;-76
2022/03/03 01:32:00;;;;;;;82.03;37.55;;;8.10;99.90;;;;;;5048058;28;20021;-74
2022/03/03 01:34:26;;;;;;;76.88;39.28;;;8.10;99.90;;;;;;5064913;28;20017;-75
2022/03/03 01:36:52;;;;;;;75.30;39.08;;;8.10;99.90;;;;;;5066006;28;20021;-75
2022/03/03 01:39:18;;;;;;;81.80;40.92;;;8.20;99.90;;;;;;5065032;28;20308;-76
2022/03/03 01:41:44;;;;;;;74.75;38.13;;;8.10;99.90;;;;;;5064748;28;20025;-76
2022/03/03 01:44:11;;;;;;;75.28;37.78;;;8.20;99.90;;;;;;5063942;28;20056;-74
2022/03/03 01:46:51;;;;;;;73.00;38.25;;;8.20;99.90;;;;;;5064718;28;20036;-75
2022/03/03 01:49:17;;;;;;;75.88;38.15;;;8.20;99.90;;;;;;5064969;28;20021;-75
2022/03/03 01:51:43;;;;;;;82.78;39.83;;;8.20;99.90;;;;;;5047831;28;20027;-75
2022/03/03 01:54:08;;;;;;;78.75;38.65;;;8.20;99.90;;;;;;5065640;28;20025;-74
2022/03/03 01:56:35;;;;;;;76.90;39.78;;;8.20;99.90;;;;;;5064196;28;20035;-75
2022/03/03 01:59:01;;;;;;;78.80;38.30;;;8.30;99.90;;;;;;5064265;28;20402;-75
2022/03/03 02:01:27;;;;;;;70.63;36.53;;;8.30;99.90;;;;;;5047911;28;20048;-74
2022/03/03 02:03:52;;;;;;;73.65;39.05;;;8.20;99.90;;;;;;5065323;28;20247;-75
2022/03/03 02:06:18;;;;;;;78.32;38.83;;;8.30;99.90;;;;;;5063610;28;20051;-75
2022/03/03 02:08:44;;;;;;;74.22;39.08;;;8.30;99.90;;;;;;5031348;28;20024;-75
2022/03/03 02:11:11;;;;;;;78.65;39.15;;;8.30;99.90;;;;;;5080633;28;20331;-74
2022/03/03 02:13:36;;;;;;;78.95;40.13;;;8.30;99.90;;;;;;5077559;28;20022;-74
2022/03/03 02:16:02;;;;;;;71.68;37.75;;;8.40;99.90;;;;;;5101262;28;20097;-76
2022/03/03 02:18:28;;;;;;;70.72;37.55;;;8.40;99.90;;;;;;5067467;28;20024;-77
2022/03/03 02:20:54;;;;;;;74.40;38.78;;;8.50;99.90;;;;;;5085206;28;20033;-76
2022/03/03 02:23:19;;;;;;;78.78;39.67;;;8.50;99.90;;;;;;5100779;28;20027;-74
2022/03/03 02:25:46;;;;;;;86.45;42.78;;;8.50;99.90;;;;;;5085129;28;20040;-74
2022/03/03 02:28:12;;;;;;;76.15;40.15;;;8.50;99.90;;;;;;5083354;28;20052;-76
2022/03/03 02:30:38;;;;;;;80.07;40.45;;;8.50;99.90;;;;;;5100801;28;20331;-77
2022/03/03 02:33:03;;;;;;;79.47;41.78;;;8.50;99.90;;;;;;5100798;28;20054;-74
2022/03/03 02:35:29;;;;;;;83.00;40.05;;;8.50;99.90;;;;;;5066939;28;20029;-75
2022/03/03 02:37:55;;;;;;;79.68;40.08;;;8.50;99.90;;;;;;5083665;28;20364;-76
2022/03/03 02:40:21;;;;;;;84.43;40.80;;;8.50;99.90;;;;;;5100540;28;20099;-75
2022/03/03 02:42:50;;;;;;;81.47;41.45;;;8.50;99.90;;;;;;5084211;28;20364;-75
2022/03/03 02:45:17;;;;;;;77.47;39.97;;;8.50;99.90;;;;;;5100172;28;20059;-74
2022/03/03 02:47:45;;;;;;;75.75;40.13;;;8.50;99.90;;;;;;5083015;28;20036;-75
2022/03/03 02:50:13;;;;;;;86.38;43.40;;;8.60;99.90;;;;;;5099990;28;20238;-76
2022/03/03 02:52:39;;;;;;;78.07;41.50;;;8.60;99.90;;;;;;5084558;28;20025;-75
2022/03/03 02:55:05;;;;;;;82.63;40.78;;;8.60;99.90;;;;;;5082954;28;20350;-74
2022/03/03 02:58:01;;;;;;;78.00;41.70;;;8.60;99.90;;;;;;5084146;28;20076;-75
2022/03/03 03:00:17;;;;;;;89.68;41.47;;;8.70;99.90;;;;;;5083646;28;20035;-77
2022/03/03 03:02:43;;;;;;;84.55;41.67;;;8.60;99.90;;;;;;5100039;28;20092;-75
2022/03/03 03:05:09;;;;;;;81.20;41.70;;;8.60;99.90;;;;;;5081216;28;20067;-75
2022/03/03 03:07:36;;;;;;;84.00;42.13;;;8.60;99.90;;;;;;5100164;28;20299;-75
2022/03/03 03:10:03;;;;;;;85.93;43.17;;;8.60;99.90;;;;;;5099930;28;20359;-75
2022/03/03 03:12:29;;;;;;;83.40;41.17;;;8.60;99.90;;;;;;5079396;28;20021;-76
2022/03/03 03:14:55;;;;;;;84.97;42.67;;;8.70;99.90;;;;;;5063965;28;20096;-74
2022/03/03 03:17:20;;;;;;;87.85;44.60;;;8.70;99.90;;;;;;5046466;28;20021;-76
2022/03/03 03:19:46;;;;;;;88.30;41.85;;;8.60;99.90;;;;;;5046082;28;20327;-75
2022/03/03 03:22:12;;;;;;;86.75;44.17;;;8.70;99.90;;;;;;5046148;28;20025;-76
2022/03/03 03:24:37;;;;;;;85.68;43.72;;;8.70;99.90;;;;;;5046250;28;20032;-75
2022/03/03 03:27:03;;;;;;;81.60;44.55;;;8.70;99.90;;;;;;5045949;28;20150;-75
2022/03/03 03:29:29;;;;;;;92.40;47.08;;;8.70;99.90;;;;;;5062687;28;20059;-75
2022/03/03 03:31:54;;;;;;;80.05;43.17;;;8.70;99.90;;;;;;5045789;28;20029;-75
2022/03/03 03:34:20;;;;;;;83.75;43.65;;;8.70;99.90;;;;;;5045831;28;20315;-76
2022/03/03 03:36:46;;;;;;;84.65;44.05;;;8.70;99.90;;;;;;5046115;28;20052;-75
2022/03/03 03:39:11;;;;;;;83.95;42.63;;;8.70;99.90;;;;;;5046005;28;20020;-75
2022/03/03 03:41:37;;;;;;;95.30;45.90;;;8.70;99.90;;;;;;5062473;28;20028;-74
2022/03/03 03:44:03;;;;;;;87.85;44.53;;;8.60;99.90;;;;;;5029155;28;20063;-74
2022/03/03 03:46:29;;;;;;;93.40;47.13;;;8.60;99.90;;;;;;5062206;28;20020;-74
2022/03/03 03:48:55;;;;;;;91.45;44.88;;;8.60;99.90;;;;;;5063276;28;20374;-76
2022/03/03 03:51:21;;;;;;;88.38;45.92;;;8.60;99.90;;;;;;5063035;28;20020;-75
2022/03/03 03:53:46;;;;;;;89.28;45.78;;;8.60;99.90;;;;;;5062328;28;20047;-74
2022/03/03 03:56:12;;;;;;;96.25;47.42;;;8.60;99.90;;;;;;5045697;28;20017;-75
2022/03/03 03:58:38;;;;;;;93.10;45.90;;;8.70;99.90;;;;;;5045636;28;20032;-75
2022/03/03 04:01:03;;;;;;;88.10;45.72;;;8.70;99.90;;;;;;5062002;28;20040;-74
2022/03/03 04:03:29;;;;;;;91.10;46.50;;;8.70;99.90;;;;;;5062325;28;20051;-74
2022/03/03 04:05:55;;;;;;;89.38;45.97;;;8.60;99.90;;;;;;5027596;28;20260;-75
2022/03/03 04:08:21;;;;;;;91.70;47.25;;;8.70;99.90;;;;;;5062396;28;20024;-75
2022/03/03 04:10:47;;;;;;;105.88;48.92;;;8.60;99.90;;;;;;5062183;28;20092;-75
2022/03/03 04:13:15;;;;;;;95.13;48.90;;;8.60;99.90;;;;;;5072687;28;20028;-74
2022/03/03 04:15:41;;;;;;;92.18;48.35;;;8.60;99.90;;;;;;5065286;28;20028;-75
2022/03/03 04:18:06;;;;;;;99.70;48.45;;;8.50;99.90;;;;;;5082507;28;20307;-75
2022/03/03 04:20:32;;;;;;;97.90;49.05;;;8.50;99.90;;;;;;5098863;28;20031;-75
2022/03/03 04:22:58;;;;;;;97.82;49.10;;;8.50;99.90;;;;;;5083379;28;20051;-75
2022/03/03 04:25:24;;;;;;;90.45;47.30;;;8.50;99.90;;;;;;5082229;28;20066;-75
2022/03/03 04:27:49;;;;;;;102.68;48.88;;;8.60;99.90;;;;;;5081857;28;20047;-75
2022/03/03 04:30:15;;;;;;;96.82;48.63;;;8.60;99.90;;;;;;5065674;28;20206;-75
2022/03/03 04:32:41;;;;;;;99.22;47.72;;;8.70;99.90;;;;;;5083361;28;20044;-75
2022/03/03 04:35:09;;;;;;;96.22;47.88;;;8.70;99.90;;;;;;5065288;28;20028;-75
2022/03/03 04:37:36;;;;;;;96.40;48.20;;;8.70;99.90;;;;;;5065474;28;20095;-74
2022/03/03 04:40:02;;;;;;;98.88;49.08;;;8.70;99.90;;;;;;5065852;28;20027;-75
2022/03/03 04:42:28;;;;;;;98.03;48.60;;;8.60;99.90;;;;;;5082017;28;20021;-75
2022/03/03 04:44:53;;;;;;;99.30;47.60;;;8.70;99.90;;;;;;5065308;28;20223;-75
2022/03/03 04:47:20;;;;;;;100.93;49.13;;;8.60;99.90;;;;;;5065531;28;20029;-74
2022/03/03 04:49:45;;;;;;;94.93;47.72;;;8.70;99.90;;;;;;5082015;28;20036;-74
2022/03/03 04:52:11;;;;;;;92.75;47.30;;;8.70;99.90;;;;;;5083133;28;20084;-75
2022/03/03 04:54:37;;;;;;;91.75;46.17;;;8.70;99.90;;;;;;5083300;28;20024;-75
2022/03/03 04:57:03;;;;;;;94.50;48.95;;;8.70;99.90;;;;;;5082397;28;20362;-74
2022/03/03 04:59:28;;;;;;;99.15;48.00;;;8.70;99.90;;;;;;5082192;28;20047;-75
2022/03/03 05:01:54;;;;;;;96.32;50.13;;;8.70;99.90;;;;;;5083345;28;20016;-77
2022/03/03 05:04:20;;;;;;;97.30;48.17;;;8.70;99.90;;;;;;5085518;28;20024;-76
2022/03/03 05:06:47;;;;;;;98.25;49.22;;;8.70;99.90;;;;;;5083871;28;20330;-76
2022/03/03 05:09:13;;;;;;;103.93;51.83;;;8.70;99.90;;;;;;5085494;28;20184;-74
2022/03/03 05:11:39;;;;;;;102.13;51.38;;;8.70;99.90;;;;;;5086210;28;20048;-75
2022/03/03 05:14:06;;;;;;;106.85;50.50;;;8.70;99.90;;;;;;5081752;28;20104;-75
2022/03/03 05:16:31;;;;;;;97.32;50.75;;;8.70;99.90;;;;;;5081914;28;20025;-74
2022/03/03 05:18:57;;;;;;;102.60;51.95;;;8.80;99.90;;;;;;5081881;28;20052;-75
2022/03/03 05:21:23;;;;;;;105.45;51.25;;;8.70;99.90;;;;;;5065208;28;20021;-74
2022/03/03 05:23:49;;;;;;;107.75;51.17;;;8.70;99.90;;;;;;5065028;28;20229;-75
2022/03/03 05:26:15;;;;;;;109.15;52.70;;;8.80;99.90;;;;;;5081406;28;20074;-75
2022/03/03 05:28:40;;;;;;;102.30;51.60;;;8.80;99.90;;;;;;5064910;28;20020;-75
2022/03/03 05:31:06;;;;;;;110.15;52.92;;;8.80;99.90;;;;;;5064935;28;20040;-74
2022/03/03 05:33:33;;;;;;;107.35;52.13;;;8.80;99.90;;;;;;5064809;28;20033;-74
2022/03/03 05:36:06;;;;;;;116.75;54.55;;;8.80;99.90;;;;;;5081630;28;20037;-75
2022/03/03 05:38:33;;;;;;;114.72;53.40;;;8.70;99.90;;;;;;5081729;28;20189;-74
2022/03/03 05:41:00;;;;;;;107.88;54.33;;;8.70;99.90;;;;;;5081732;28;20021;-76
2022/03/03 05:43:27;;;;;;;107.07;52.50;;;8.70;99.90;;;;;;5064482;28;20088;-74
2022/03/03 05:45:54;;;;;;;111.38;53.13;;;8.80;99.90;;;;;;5081433;28;20056;-75
2022/03/03 05:48:21;;;;;;;109.10;55.38;;;8.80;99.90;;;;;;5065813;28;20024;-73
2022/03/03 05:50:47;;;;;;;109.53;51.75;;;8.80;99.90;;;;;;5081035;28;20327;-76
2022/03/03 05:53:13;;;;;;;100.65;51.03;;;8.80;99.90;;;;;;5065959;28;20028;-75
2022/03/03 05:55:43;;;;;;;106.63;51.88;;;8.90;99.90;;;;;;5064395;28;20020;-76
2022/03/03 05:58:15;;;;;;;108.60;53.10;;;8.90;99.90;;;;;;5080375;28;20017;-75
2022/03/03 06:00:42;;;;;;;;;;;8.80;99.90;;;;;;5081502;28;20250;-74
2022/03/03 06:03:12;;;;;;;110.78;50.70;;;8.90;99.90;;;;;;5064055;28;19905;-76
2022/03/03 06:05:41;;;;;;;108.15;51.25;;;8.80;99.90;;;;;;5080784;28;20113;-75
2022/03/03 06:08:15;;;;;;;105.22;51.78;;;8.80;99.90;;;;;;5062643;28;20021;-74
2022/03/03 06:10:46;;;;;;;110.50;53.40;;;8.80;99.90;;;;;;5063997;28;20244;-75
2022/03/03 06:13:35;;;;;;;106.97;49.87;;;8.80;99.90;;;;;;5090771;28;20031;-75
2022/03/03 06:16:02;;;;;;;101.80;50.25;;;8.70;99.90;;;;;;5067361;28;20262;-74
2022/03/03 06:18:32;;;;;;;104.40;51.42;;;8.80;99.90;;;;;;5085208;28;20023;-74
2022/03/03 06:20:58;;;;;;;112.07;51.78;;;8.70;99.90;;;;;;5100344;28;20027;-74
2022/03/03 06:23:24;;;;;;;109.70;49.92;;;8.70;99.90;;;;;;5083637;28;20218;-74
2022/03/03 06:26:00;;;;;;;104.00;49.30;;;8.70;99.90;;;;;;5083958;28;20029;-74
2022/03/03 06:28:28;;;;;;;108.28;51.75;;;8.70;99.90;;;;;;5100333;28;20027;-74
2022/03/03 06:30:54;;;;;;;113.25;53.22;;;8.60;99.90;;;;;;5083333;28;20230;-75
2022/03/03 06:33:20;;;;;;;103.95;50.80;;;8.70;99.90;;;;;;5100444;28;20028;-74
2022/03/03 06:35:45;;;;;;;115.47;53.85;;;8.70;99.90;;;;;;5083463;28;20047;-75
2022/03/03 06:38:11;;;;;;;120.13;55.22;;;8.60;99.90;;;;;;5084749;28;20242;-75
2022/03/03 06:40:37;;;;;;;111.95;53.85;;;8.60;99.90;;;;;;5100600;28;20035;-75
2022/03/03 06:43:03;;;;;;;110.45;52.72;;;8.70;99.90;;;;;;5084285;28;20040;-75
2022/03/03 06:45:31;;;;;;;111.60;53.88;;;8.60;99.90;;;;;;5083603;28;20020;-75
2022/03/03 06:47:58;;;;;;;103.63;50.67;;;8.60;99.90;;;;;;5066744;28;20376;-75
2022/03/03 06:50:25;;;;;;;107.07;52.97;;;8.70;99.90;;;;;;5083220;28;20095;-74
2022/03/03 06:52:51;;;;;;;112.75;51.72;;;8.70;99.90;;;;;;5083222;28;20251;-75
2022/03/03 06:55:20;;;;;;;116.30;54.47;;;8.70;99.90;;;;;;5084687;28;20028;-76
2022/03/03 06:57:50;;;;;;;108.25;53.28;;;8.70;99.90;;;;;;5065868;28;20154;-75
2022/03/03 07:00:18;;;;;;;113.75;52.22;;;8.80;99.90;;;;;;5083314;28;20024;-75
2022/03/03 07:02:46;;;;;;;115.07;52.22;;;8.70;99.90;;;;;;5083149;28;20028;-76
2022/03/03 07:05:13;;;;;;;114.57;56.72;;;8.70;99.90;;;;;;5100222;28;20062;-76
2022/03/03 07:07:41;;;;;;;113.57;55.38;;;8.70;99.90;;;;;;5082719;28;20020;-75
2022/03/03 07:10:07;;;;;;;113.28;54.90;;;8.80;99.90;;;;;;5097983;28;20028;-73
2022/03/03 07:12:34;;;;;;;103.40;50.85;;;8.80;99.90;;;;;;5077710;28;20079;-76
2022/03/03 07:15:00;;;;;;;100.45;51.30;;;8.90;99.90;;;;;;5064212;28;20084;-75
2022/03/03 07:17:49;;;;;;;105.72;51.85;;;8.90;99.90;;;;;;5063128;28;20017;-75
2022/03/03 07:20:18;;;;;;;105.43;51.30;;;8.90;99.90;;;;;;5033195;28;20024;-75
2022/03/03 07:23:03;;;;;;;102.80;50.60;;;8.90;99.90;;;;;;5062956;28;20021;-74
2022/03/03 07:25:38;;;;;;;101.90;51.17;;;9.00;99.90;;;;;;5062478;28;20316;-75
2022/03/03 07:28:08;;;;;;;103.43;50.63;;;9.00;99.90;;;;;;5045563;28;20212;-75
2022/03/03 07:30:41;;;;;;;103.35;51.10;;;9.10;99.90;;;;;;5062498;28;20028;-77
2022/03/03 07:33:13;;;;;;;97.45;50.47;;;9.10;99.90;;;;;;5063772;28;20035;-74
2022/03/03 07:35:42;;;;;;;100.75;50.28;;;9.10;99.90;;;;;;5046061;28;20043;-75
2022/03/03 07:38:19;;;;;;;100.55;48.85;;;9.20;99.90;;;;;;5062610;28;20123;-76
2022/03/03 07:40:46;;;;;;;92.10;46.40;;;9.20;99.90;;;;;;5046078;28;20027;-75
2022/03/03 07:43:14;;;;;;;98.85;49.08;;;9.20;99.90;;;;;;5062302;28;20106;-73
2022/03/03 07:45:41;;;;;;;100.25;49.78;;;9.20;99.90;;;;;;5045849;28;20185;-76
2022/03/03 07:48:07;;;;;;;95.95;48.30;;;9.20;99.90;;;;;;5045998;28;20047;-77
2022/03/03 07:50:39;;;;;;;95.43;48.30;;;9.20;99.90;;;;;;5063446;28;20025;-75
2022/03/03 07:53:07;;;;;;;101.07;49.47;;;9.30;99.90;;;;;;5046517;28;20232;-75
2022/03/03 07:55:37;;;;;;;96.55;46.17;;;9.30;99.90;;;;;;5045436;28;20060;-75
2022/03/03 07:58:06;;;;;;;97.32;46.63;;;9.30;99.90;;;;;;5061751;28;20308;-76
2022/03/03 08:00:34;;;;;;;95.05;49.00;;;9.40;99.90;;;;;;5072850;28;20017;-75
2022/03/03 08:03:04;;;;;;;91.03;47.05;;;9.40;99.90;;;;;;5082337;28;20082;-74
2022/03/03 08:05:31;;;;;;;95.33;47.27;;;9.30;99.90;;;;;;5082330;28;20012;-76
2022/03/03 08:08:00;;;;;;;98.80;48.25;;;9.30;99.90;;;;;;5065522;28;20318;-74
2022/03/03 08:10:28;;;;;;;99.45;45.80;;;9.50;99.90;;;;;;5047072;28;20248;-74
2022/03/03 08:12:56;;;;;;;85.20;44.30;;;9.60;99.90;;;;;;5074019;28;20017;-77
2022/03/03 08:15:22;;;;;;;87.32;44.90;;;9.70;99.90;;;;;;5062106;28;20016;-74
2022/03/03 08:17:51;;;;;;;89.65;45.60;;;9.70;99.90;;;;;;5075151;28;20028;-76
2022/03/03 08:20:17;;;;;;;82.95;42.42;;;9.70;99.90;;;;;;5061300;28;20025;-78
2022/03/03 08:22:44;;;;;;;85.80;44.80;;;9.80;99.90;;;;;;5063096;28;20048;-74
2022/03/03 08:25:11;;;;;;;86.90;43.50;;;9.80;99.90;;;;;;5079878;28;20083;-79
2022/03/03 08:27:38;;;;;;;86.05;43.78;;;9.80;99.90;;;;;;5082091;28;20028;-77
2022/03/03 08:30:05;;;;;;;82.07;43.45;;;9.80;99.90;;;;;;5074753;28;20032;-75
2022/03/03 08:32:36;;;;;;;83.88;43.30;;;9.80;99.90;;;;;;5063457;28;20203;-75
2022/03/03 08:35:11;;;;;;;87.57;44.88;;;9.90;99.90;;;;;;5085386;28;20021;-76
2022/03/03 08:37:39;;;;;;;79.60;40.35;;;9.90;99.90;;;;;;5087261;28;20020;-77
2022/03/03 08:40:08;;;;;;;83.85;42.72;;;10.00;99.90;;;;;;5082031;28;20024;-75
2022/03/03 08:42:37;;;;;;;83.80;41.15;;;10.00;99.90;;;;;;5078121;28;20053;-76
2022/03/03 08:45:08;;;;;;;82.40;41.40;;;10.10;99.90;;;;;;5085157;28;20319;-75
2022/03/03 08:47:34;;;;;;;86.38;41.15;;;10.10;99.90;;;;;;5074765;28;20020;-75
2022/03/03 08:50:04;;;;;;;79.45;39.63;;;10.10;99.90;;;;;;5101814;28;20027;-75
2022/03/03 08:52:31;;;;;;;77.85;40.58;;;10.20;99.90;;;;;;5054605;28;20228;-75
2022/03/03 08:54:56;;;;;;;80.53;41.38;;;10.30;99.90;;;;;;5078415;28;20017;-73
2022/03/03 08:57:22;;;;;;;81.75;39.17;;;10.30;99.90;;;;;;5078028;28;20044;-73
2022/03/03 08:59:48;;;;;;;74.03;37.45;;;10.30;99.90;;;;;;5073425;28;20461;-73
2022/03/03 09:02:17;;;;;;;76.78;37.97;;;10.40;99.90;;;;;;5061350;28;20031;-74
2022/03/03 09:04:46;;;;;;;77.72;38.00;;;10.50;99.90;;;;;;5082445;28;20094;-74
2022/03/03 09:07:12;;;;;;;76.90;38.33;;;10.50;99.90;;;;;;5069626;28;20017;-76
2022/03/03 09:09:38;;;;;;;79.25;38.40;;;10.50;99.90;;;;;;5084201;28;20027;-74
2022/03/03 09:12:04;;;;;;;77.95;39.60;;;10.50;99.90;;;;;;5080283;28;20258;-80
2022/03/03 09:14:30;;;;;;;74.95;37.00;;;10.50;99.90;;;;;;5074323;28;20025;-76
2022/03/03 09:16:56;;;;;;;79.63;38.38;;;10.60;99.90;;;;;;5066105;28;20052;-72
2022/03/03 09:19:21;;;;;;;74.13;36.33;;;10.60;99.90;;;;;;5078394;28;20079;-74
2022/03/03 09:21:47;;;;;;;74.57;36.28;;;10.80;99.90;;;;;;5097166;28;20396;-72
2022/03/03 09:24:13;;;;;;;70.40;35.65;;;10.90;99.90;;;;;;5068038;28;20024;-73
2022/03/03 09:26:39;;;;;;;72.07;36.20;;;10.90;99.90;;;;;;5084449;28;20051;-73
2022/03/03 09:29:05;;;;;;;74.47;36.42;;;11.00;99.90;;;;;;5077790;28;20037;-73
2022/03/03 09:31:31;;;;;;;75.97;35.75;;;11.10;99.90;;;;;;5069551;28;20104;-72
2022/03/03 09:33:56;;;;;;;68.03;35.22;;;11.20;99.90;;;;;;5065461;28;20028;-73
2022/03/03 09:36:22;;;;;;;69.55;34.47;;;11.30;99.90;;;;;;5049551;28;20106;-73
2022/03/03 09:38:48;;;;;;;65.97;33.58;;;11.30;99.90;;;;;;5080659;28;20075;-75
2022/03/03 09:41:13;;;;;;;66.40;32.63;;;11.20;99.90;;;;;;5065539;28;20025;-70
2022/03/03 09:43:41;;;;;;;71.15;34.13;;;11.10;99.90;;;;;;5065151;28;20084;-73
2022/03/03 09:46:07;;;;;;;65.57;33.55;;;11.10;99.90;;;;;;5068061;28;20039;-78
2022/03/03 09:48:34;;;;;;;62.08;33.47;;;11.00;99.90;;;;;;5077211;28;20021;-77
2022/03/03 09:51:00;;;;;;;69.50;33.75;;;10.90;99.90;;;;;;5085198;28;20025;-73
2022/03/03 09:53:26;;;;;;;69.63;32.45;;;10.90;99.90;;;;;;5077468;28;20024;-74
2022/03/03 09:55:52;;;;;;;68.40;33.22;;;10.90;99.90;;;;;;5066489;28;20064;-74
2022/03/03 09:58:18;;;;;;;59.17;31.83;;;10.80;99.90;;;;;;5085019;28;20092;-71
2022/03/03 10:00:46;;;;;;;65.03;32.25;;;10.80;99.90;;;;;;5079210;28;20260;-73
2022/03/03 10:03:14;;;;;;;63.05;31.48;;;10.90;99.90;;;;;;5064121;28;20102;-74
2022/03/03 10:05:47;;;;;;;65.35;32.47;;;10.90;99.90;;;;;;5070341;28;20050;-73
2022/03/03 10:08:15;;;;;;;61.72;31.15;;;10.90;99.90;;;;;;5084232;28;20031;-74
2022/03/03 10:10:43;;;;;;;63.55;32.15;;;10.90;99.90;;;;;;5078827;28;20024;-72
2022/03/03 10:13:10;;;;;;;58.92;31.95;;;11.00;99.90;;;;;;5063598;28;20023;-75
2022/03/03 10:15:36;;;;;;;58.60;31.20;;;11.10;99.90;;;;;;5064055;28;20012;-73
2022/03/03 10:18:06;;;;;;;61.42;30.80;;;11.30;99.90;;;;;;5079184;28;20036;-75
2022/03/03 10:20:45;;;;;;;60.60;30.02;;;11.40;99.90;;;;;;5088093;28;20075;-78
2022/03/03 10:23:11;;;;;;;61.60;30.33;;;11.50;99.90;;;;;;5073161;28;20024;-78
2022/03/03 10:25:41;;;;;;;60.55;31.23;;;11.50;99.90;;;;;;5045073;28;20033;-75
2022/03/03 10:28:15;;;;;;;52.13;28.65;;;11.60;99.90;;;;;;5081861;28;20024;-77
2022/03/03 10:30:54;;;;;;;53.08;27.38;;;11.60;99.90;;;;;;5079242;28;20236;-77
2022/03/03 10:33:25;;;;;;;51.78;27.98;;;11.70;99.90;;;;;;5082929;28;20016;-78
2022/03/03 10:36:14;;;;;;;49.17;25.60;;;11.70;99.90;;;;;;5079320;28;20029;-78
2022/03/03 10:38:52;;;;;;;45.45;24.17;;;11.70;99.90;;;;;;5062949;28;20025;-77
2022/03/03 10:41:43;;;;;;;48.88;25.30;;;11.60;99.90;;;;;;5066711;28;20211;-76
2022/03/03 10:44:17;;;;;;;47.30;25.38;;;11.50;99.90;;;;;;5066950;28;20052;-78
2022/03/03 10:47:04;;;;;;;43.05;24.27;;;11.60;99.90;;;;;;5084993;28;20023;-76
2022/03/03 10:49:31;;;;;;;50.03;23.52;;;11.60;99.90;;;;;;5085804;28;20063;-74
2022/03/03 10:52:18;;;;;;;41.42;22.48;;;11.60;99.90;;;;;;5082321;28;20017;-75
2022/03/03 10:54:58;;;;;;;43.20;23.17;;;11.60;99.90;;;;;;5065503;28;20040;-77
2022/03/03 10:57:45;;;;;;;44.90;22.52;;;11.60;99.90;;;;;;5062038;28;20044;-77
2022/03/03 11:00:18;;;;;;;41.38;22.75;;;11.60;99.90;;;;;;5065603;28;20024;-75
2022/03/03 11:02:47;;;;;;;40.58;21.08;;;11.60;99.90;;;;;;5078827;28;20079;-75
2022/03/03 11:05:14;;;;;;;42.42;22.42;;;11.70;99.90;;;;;;5062574;28;20039;-78
2022/03/03 11:07:44;;;;;;;35.97;21.55;;;11.70;99.90;;;;;;5062787;28;20032;-77
2022/03/03 11:10:12;;;;;;;43.30;20.73;;;11.70;99.90;;;;;;5048796;28;20021;-79
2022/03/03 11:12:39;;;;;;;41.08;20.58;;;11.70;99.90;;;;;;5060202;28;20043;-76
2022/03/03 11:15:07;;;;;;;40.03;20.70;;;11.70;99.90;;;;;;5062555;28;20051;-77
2022/03/03 11:17:35;;;;;;;37.22;19.42;;;11.70;99.90;;;;;;5079230;28;20036;-75
2022/03/03 11:20:01;;;;;;;41.80;19.95;;;11.60;99.90;;;;;;5063533;28;20017;-76
2022/03/03 11:22:30;;;;;;;35.05;19.27;;;11.60;99.90;;;;;;5078832;28;20012;-76
2022/03/03 11:25:00;;;;;;;38.25;19.95;;;11.60;99.90;;;;;;5081824;28;20071;-76
2022/03/03 11:27:42;;;;;;;33.75;18.45;;;11.70;99.90;;;;;;5056930;28;20046;-77
2022/03/03 11:30:30;;;;;;;32.63;17.75;;;11.80;99.90;;;;;;5080197;28;20302;-76
2022/03/03 11:33:31;;;;;;;26.63;14.60;;;11.80;99.90;;;;;;5062987;28;20021;-76
2022/03/03 11:36:08;;;;;;;20.42;13.23;;;11.80;99.90;;;;;;5062313;28;20212;-76
2022/03/03 11:38:54;;;;;;;24.10;12.95;;;11.90;99.90;;;;;;5076681;28;20028;-75
2022/03/03 11:41:25;;;;;;;22.48;12.50;;;11.90;99.90;;;;;;5061660;28;20288;-74
2022/03/03 11:44:00;;;;;;;19.77;11.52;;;12.00;99.90;;;;;;5075236;28;20057;-73
2022/03/03 11:46:46;;;;;;;20.23;10.10;;;12.10;99.90;;;;;;5077219;28;20020;-74
2022/03/03 11:49:23;;;;;;;19.95;10.68;;;12.20;99.90;;;;;;5048099;28;20024;-75
2022/03/03 11:51:50;;;;;;;20.70;10.35;;;12.30;99.90;;;;;;5047688;28;20032;-75
2022/03/03 11:54:26;;;;;;;17.98;9.38;;;12.40;99.90;;;;;;5044851;28;20056;-73
2022/03/03 11:57:21;;;;;;;18.02;9.25;;;12.40;99.90;;;;;;5073010;28;20080;-77
2022/03/03 11:59:48;;;;;;;17.20;8.02;;;12.40;99.90;;;;;;5063090;28;20036;-76
2022/03/03 12:02:18;;;;;;;14.73;8.43;;;12.40;99.90;;;;;;5082537;28;20047;-75
2022/03/03 12:04:44;;;;;;;13.90;7.40;;;12.40;99.90;;;;;;5082488;28;20028;-77
2022/03/03 12:07:30;;;;;;;14.13;8.27;;;12.30;99.90;;;;;;5061434;28;20050;-75
2022/03/03 12:09:56;;;;;;;13.52;6.88;;;12.30;99.90;;;;;;5073329;28;20040;-77
2022/03/03 12:12:24;;;;;;;11.70;7.20;;;12.30;99.90;;;;;;5055252;28;20040;-76
2022/03/03 12:15:01;;;;;;;9.93;6.50;;;12.30;99.90;;;;;;5083137;28;20063;-78
2022/03/03 12:18:02;;;;;;;13.30;5.72;;;12.50;99.90;;;;;;5055968;28;20263;-75
2022/03/03 12:20:32;;;;;;;8.27;5.72;;;12.40;99.90;;;;;;5070041;28;20020;-74
2022/03/03 12:23:19;;;;;;;9.85;5.35;;;12.50;99.90;;;;;;5070165;28;20040;-74
2022/03/03 12:25:55;;;;;;;8.45;5.10;;;12.50;99.90;;;;;;5074511;28;20215;-74
2022/03/03 12:28:24;;;;;;;8.70;4.47;;;12.50;99.90;;;;;;5054937;28;20040;-76
2022/03/03 12:30:51;;;;;;;6.97;4.15;;;12.50;99.90;;;;;;5082664;28;20032;-76
2022/03/03 12:33:27;;;;;;;7.53;4.13;;;12.50;99.90;;;;;;5077838;28;20028;-77
2022/03/03 12:35:59;;;;;;;6.00;3.50;;;12.50;99.90;;;;;;5100516;28;20024;-78
2022/03/03 12:38:28;;;;;;;7.32;4.00;;;12.50;99.90;;;;;;5071099;28;20024;-75
2022/03/03 12:40:54;;;;;;;8.73;4.22;;;12.40;99.90;;;;;;5073941;28;20092;-78